Time;durP1;ratioP1;P1;durP2;ratioP2;P2;SDS_P1;SDS_P2;PMS_P1;PMS_P2;Temp;Humidity;BMP_temperature;BMP_pressure;BME280_temperature;BME280_humidity;BME280_pressure;Samples;Min_cycle;Max_cycle;Signal;HPM_P1;HPM_P2
2023/12/02 00:00:43;;;;;;;0.20;0.20;;;;;;;5.97;59.51;98047.19;5294651;26;20096;31
2023/12/02 01:18:19;;;;;;;0.73;0.73;;;;;;;6.23;59.53;98040.09;5296020;26;21025;31
2023/12/02 01:29:42;;;;;;;2.05;1.55;;;;;;;6.18;59.52;98027.37;5312680;26;21172;-95
2023/12/02 02:08:44;;;;;;;1.37;1.30;;;;;;;6.35;59.52;97996.47;5360959;26;20103;-96
2023/12/02 02:11:11;;;;;;;0.30;0.20;;;;;;;6.45;59.54;97984.03;5336966;26;20059;-96
2023/12/02 02:16:21;;;;;;;0.20;0.15;;;;;;;6.25;59.52;97963.38;5240545;26;20067;-96
2023/12/02 02:29:22;;;;;;;0.03;0.03;;;;;;;6.32;59.53;97980.28;5265178;26;20023;-96
2023/12/02 02:47:37;;;;;;;0.00;0.00;;;;;;;6.28;59.52;97960.66;5312178;26;20776;-96
2023/12/02 02:50:23;;;;;;;0.10;0.10;;;;;;;6.38;59.53;97962.75;5264949;26;20127;-95
2023/12/02 03:08:59;;;;;;;1.65;0.80;;;;;;;6.36;59.54;97948.22;5256786;27;20049;-96
2023/12/02 03:54:39;;;;;;;0.00;0.00;;;;;;;6.37;59.53;97917.16;5295948;26;20119;31
2023/12/02 04:16:49;;;;;;;1.83;0.85;;;;;;;6.65;59.54;97926.28;5337140;26;20056;-96
2023/12/02 04:19:21;;;;;;;0.00;0.00;;;;;;;6.58;59.54;97917.94;5337933;26;20047;-96
2023/12/02 04:22:11;;;;;;;0.08;0.08;;;;;;;6.63;59.54;97921.19;5340121;26;20047;-96
2023/12/02 04:29:42;;;;;;;15.15;1.10;;;;;;;6.59;59.55;97931.69;5343051;26;20163;-94
2023/12/02 04:40:04;;;;;;;0.70;0.70;;;;;;;6.59;59.55;97922.19;5295057;26;20467;-95
2023/12/02 05:14:18;;;;;;;0.17;0.17;;;;;;;6.58;59.55;97879.16;5303585;27;20092;-96
2023/12/02 05:42:48;;;;;;;1.55;1.08;;;;;;;6.70;59.55;97873.44;5274853;26;20176;-96
2023/12/02 05:45:14;;;;;;;0.00;0.00;;;;;;;6.49;59.53;97876.16;5332294;27;20060;-96
2023/12/02 05:47:39;;;;;;;0.10;0.10;;;;;;;6.54;59.54;97884.53;5273531;27;20080;-96
2023/12/02 05:50:05;;;;;;;0.60;0.57;;;;;;;6.52;59.54;97888.94;5261066;27;20037;-96
2023/12/02 05:52:37;;;;;;;1.12;0.65;;;;;;;6.50;59.54;97886.44;5283271;27;20616;-95
2023/12/02 05:55:16;;;;;;;0.00;0.00;;;;;;;6.45;59.54;97883.22;5334185;27;20116;-95
2023/12/02 05:57:44;;;;;;;0.00;0.00;;;;;;;6.55;59.54;97888.81;5325662;27;20780;-94
2023/12/02 06:00:10;;;;;;;5.72;1.95;;;;;;;6.67;59.55;97873.59;5304481;27;20021;-95
2023/12/02 06:02:37;;;;;;;0.13;0.13;;;;;;;6.56;59.54;97872.38;5283923;26;20064;-96
2023/12/02 06:05:10;;;;;;;0.90;0.90;;;;;;;6.64;59.54;97872.91;5319972;26;20076;-95
2023/12/02 06:13:07;;;;;;;0.45;0.15;;;;;;;6.64;59.54;97884.06;5372476;26;20058;-96
2023/12/02 06:15:37;;;;;;;0.00;0.00;;;;;;;6.71;59.55;97893.22;5367841;26;20157;-96
2023/12/02 06:18:09;;;;;;;0.30;0.30;;;;;;;6.54;59.54;97907.81;5382106;26;20080;-96
2023/12/02 06:20:41;;;;;;;0.37;0.37;;;;;;;6.76;59.55;97911.09;5383086;26;20055;-96
2023/12/02 06:23:12;;;;;;;0.45;0.45;;;;;;;6.85;59.55;97891.72;5383660;26;20023;-96
2023/12/02 06:26:07;;;;;;;0.00;0.00;;;;;;;6.75;59.55;97909.41;5368256;26;20079;-96
2023/12/02 06:38:16;;;;;;;0.00;0.00;;;;;;;6.93;59.56;97923.25;5374991;26;20174;-96
2023/12/02 07:25:16;;;;;;;0.08;0.08;;;;;;;7.52;59.59;97915.22;5303573;26;20035;-96
2023/12/02 07:28:24;;;;;;;0.20;0.20;;;;;;;7.56;59.60;97916.75;5327210;26;20028;-96
2023/12/02 07:41:27;;;;;;;0.00;0.00;;;;;;;7.59;59.60;97900.25;5316135;26;20125;-96
2023/12/02 07:54:34;;;;;;;1.25;0.88;;;;;;;7.75;59.61;97884.75;5383425;26;20041;-96
2023/12/02 07:57:45;;;;;;;0.47;0.45;;;;;;;7.67;59.60;97877.38;5366012;26;20032;-96
2023/12/02 08:03:38;;;;;;;0.30;0.30;;;;;;;7.67;59.60;97891.16;5381610;26;20034;-96
2023/12/02 08:06:04;;;;;;;0.13;0.13;;;;;;;7.70;59.61;97883.25;5341597;26;20044;-96
2023/12/02 08:08:30;;;;;;;1.08;0.57;;;;;;;7.79;59.61;97896.63;5332785;26;20105;-95
2023/12/02 08:11:12;;;;;;;0.10;0.10;;;;;;;7.63;59.61;97896.59;5339489;26;20020;-96
2023/12/02 08:13:41;;;;;;;0.52;0.13;;;;;;;7.80;59.61;97890.53;5374904;26;20024;-95
2023/12/02 08:16:12;;;;;;;0.93;0.93;;;;;;;7.64;59.60;97903.44;5357393;26;20083;-96
2023/12/02 08:18:39;;;;;;;0.98;0.88;;;;;;;7.71;59.61;97907.38;5337344;26;20062;-96
2023/12/02 08:21:05;;;;;;;0.82;0.82;;;;;;;7.86;59.61;97910.97;5333377;26;20103;-96
2023/12/02 08:23:31;;;;;;;0.73;0.55;;;;;;;7.84;59.60;97915.41;5332872;26;20645;-96
2023/12/02 08:26:05;;;;;;;0.35;0.25;;;;;;;7.85;59.62;97927.44;5336174;26;20065;-95
2023/12/02 08:28:32;;;;;;;0.52;0.52;;;;;;;7.79;59.61;97930.31;5356437;26;20728;-96
2023/12/02 08:30:57;;;;;;;0.45;0.45;;;;;;;7.89;59.61;97921.19;5331940;26;20136;-96
2023/12/02 08:33:26;;;;;;;0.10;0.10;;;;;;;7.90;59.61;97948.75;5333255;26;20045;-96
2023/12/02 08:35:52;;;;;;;1.75;0.90;;;;;;;8.01;59.63;97949.03;5314661;26;20119;-96
2023/12/02 08:38:17;;;;;;;2.62;2.35;;;;;;;8.08;59.63;97954.78;5313283;26;20362;-96
2023/12/02 08:40:43;;;;;;;0.93;0.65;;;;;;;8.10;59.62;97958.13;5331448;26;20341;-95
2023/12/02 08:43:08;;;;;;;0.43;0.43;;;;;;;8.13;59.62;97943.25;5332459;26;20400;-96
2023/12/02 08:45:34;;;;;;;1.33;1.20;;;;;;;8.21;59.63;97932.50;5335142;26;20036;-96
2023/12/02 08:48:00;;;;;;;0.25;0.25;;;;;;;8.23;59.63;97943.63;5331609;26;20111;-96
2023/12/02 08:50:31;;;;;;;1.20;1.12;;;;;;;8.35;59.64;97932.66;5333689;26;20100;-94
2023/12/02 08:52:57;;;;;;;0.10;0.10;;;;;;;8.27;59.64;97942.53;5333050;26;20064;-95
2023/12/02 08:55:30;;;;;;;1.55;1.02;;;;;;;8.30;59.63;97945.00;5305466;27;21313;-96
2023/12/02 08:57:57;;;;;;;0.80;0.52;;;;;;;8.30;59.63;97932.03;5324738;27;20079;-96
2023/12/02 09:00:22;;;;;;;0.55;0.55;;;;;;;8.30;59.64;97927.69;5324307;27;20057;-95
2023/12/02 09:02:48;;;;;;;0.95;0.93;;;;;;;8.42;59.64;97936.59;5323098;27;20131;-96
2023/12/02 09:05:13;;;;;;;1.95;1.60;;;;;;;8.43;59.64;97934.84;5324922;27;20543;-96
2023/12/02 09:07:39;;;;;;;1.60;1.50;;;;;;;8.44;59.64;97928.75;5327014;27;20075;-96
2023/12/02 09:10:10;;;;;;;1.42;1.33;;;;;;;8.23;59.63;97934.09;5324167;27;20064;-96
2023/12/02 09:12:35;;;;;;;0.03;0.03;;;;;;;8.28;59.63;97939.03;5325378;27;20025;-95
2023/12/02 09:15:16;;;;;;;1.95;1.85;;;;;;;8.29;59.63;97932.94;5340041;26;20409;-92
2023/12/02 09:18:13;;;;;;;1.30;1.12;;;;;;;8.37;59.63;97922.22;5320892;27;20064;-91
2023/12/02 09:20:50;;;;;;;1.08;0.95;;;;;;;8.40;59.64;97942.78;5340488;26;20059;-91
2023/12/02 09:23:17;;;;;;;0.17;0.13;;;;;;;8.24;59.63;97925.38;5339287;26;20052;-91
2023/12/02 09:26:01;;;;;;;1.15;1.05;;;;;;;8.29;59.63;97928.59;5343548;26;20025;-96
2023/12/02 09:31:08;;;;;;;1.48;1.37;;;;;;;8.24;59.64;97922.78;5363080;26;20068;-96
2023/12/02 09:33:34;;;;;;;1.55;1.45;;;;;;;8.28;59.63;97924.34;5334824;26;20063;-96
2023/12/02 09:36:06;;;;;;;0.20;0.13;;;;;;;8.31;59.64;97924.19;5340340;26;20080;-96
2023/12/02 09:44:12;;;;;;;0.25;0.25;;;;;;;8.55;59.65;97934.22;5352554;26;20102;-96
2023/12/02 09:47:01;;;;;;;0.90;0.88;;;;;;;8.63;59.65;97924.25;5286631;27;20075;-96
2023/12/02 09:49:37;;;;;;;0.10;0.10;;;;;;;8.54;59.65;97923.00;5338244;26;20071;-96
2023/12/02 09:52:29;;;;;;;0.82;0.82;;;;;;;8.51;59.64;97922.31;5355485;26;20797;-96
2023/12/02 09:58:08;;;;;;;0.25;0.25;;;;;;;8.30;59.64;97904.34;5382290;26;20099;-96
2023/12/02 10:01:21;;;;;;;1.27;1.17;;;;;;;8.43;59.64;97901.97;5361348;26;20059;-95
2023/12/02 10:04:06;;;;;;;2.58;1.17;;;;;;;8.59;59.66;97889.87;5368603;26;20066;-88
2023/12/02 10:06:53;;;;;;;0.80;0.80;;;;;;;8.66;59.66;97882.59;5366761;26;20048;-89
2023/12/02 10:09:44;;;;;;;1.05;0.95;;;;;;;8.59;59.66;97884.69;5346468;26;20739;-89
2023/12/02 10:12:32;;;;;;;1.40;1.33;;;;;;;8.57;59.65;97880.50;5328170;26;20056;-88
2023/12/02 10:15:05;;;;;;;0.85;0.85;;;;;;;8.57;59.65;97876.16;5330072;26;20152;-93
2023/12/02 10:17:40;;;;;;;0.40;0.40;;;;;;;8.56;59.65;97876.25;5330032;26;20020;-95
2023/12/02 10:20:33;;;;;;;0.20;0.20;;;;;;;8.45;59.65;97869.03;5346545;26;20064;-95
2023/12/02 10:23:02;;;;;;;1.50;1.33;;;;;;;8.39;59.64;97881.47;5321492;26;20068;-94
2023/12/02 10:25:41;;;;;;;0.47;0.47;;;;;;;8.45;59.65;97876.81;5304561;27;20117;-94
2023/12/02 10:28:22;;;;;;;5.80;1.65;;;;;;;8.45;59.65;97875.97;5287065;27;20039;-94
2023/12/02 10:30:50;;;;;;;2.03;1.92;;;;;;;8.51;59.64;97873.87;5305052;27;20657;-93
2023/12/02 10:33:26;;;;;;;0.20;0.20;;;;;;;8.38;59.64;97872.03;5305506;27;20477;-94
2023/12/02 10:35:55;;;;;;;10.68;5.47;;;;;;;8.31;59.64;97869.75;5304910;27;20060;-93
2023/12/02 10:38:28;;;;;;;0.77;0.77;;;;;;;8.27;59.63;97870.78;5303800;27;20063;-92
2023/12/02 10:41:17;;;;;;;3.05;2.50;;;;;;;8.19;59.63;97896.28;5304866;27;20073;-95
2023/12/02 10:43:42;;;;;;;0.15;0.15;;;;;;;8.35;59.64;97856.66;5297745;27;20417;-94
2023/12/02 10:46:08;;;;;;;1.15;1.12;;;;;;;8.34;59.64;97861.00;5305751;27;20056;-95
2023/12/02 10:48:38;;;;;;;0.60;0.35;;;;;;;8.40;59.64;97831.31;5307772;26;20091;-95
2023/12/02 10:51:04;;;;;;;1.45;1.35;;;;;;;8.25;59.64;97853.66;5309098;26;20110;-95
2023/12/02 10:53:37;;;;;;;6.72;2.33;;;;;;;8.30;59.63;97820.56;5290716;26;20064;-93
2023/12/02 10:56:10;;;;;;;2.33;0.98;;;;;;;8.10;59.63;97844.94;5314456;26;20044;-94
2023/12/02 10:58:38;;;;;;;1.33;1.12;;;;;;;8.17;59.63;97838.50;5293614;26;20062;-94
2023/12/02 11:01:06;;;;;;;1.52;1.45;;;;;;;7.99;59.62;97832.53;5309800;26;20075;-96
2023/12/02 11:03:37;;;;;;;3.05;1.50;;;;;;;8.05;59.62;97830.56;5328043;26;20127;-95
2023/12/02 11:06:27;;;;;;;2.95;1.80;;;;;;;8.04;59.62;97803.78;5310727;26;20048;-95
2023/12/02 11:08:59;;;;;;;;;;;;;;;7.98;59.61;97807.53;5328167;26;20724;-95
2023/12/02 11:11:42;;;;;;;0.73;0.73;;;;;;;8.01;59.62;97809.97;5327375;26;19968;-95
2023/12/02 11:14:12;;;;;;;0.32;0.32;;;;;;;8.09;59.62;97791.44;5328106;26;20425;-95
2023/12/02 11:17:02;;;;;;;0.32;0.08;;;;;;;8.05;59.62;97805.50;5310128;26;20103;-95
2023/12/02 11:20:12;;;;;;;0.93;0.30;;;;;;;7.92;59.62;97788.91;5352296;26;20021;-95
2023/12/02 11:23:19;;;;;;;2.33;1.87;;;;;;;7.87;59.61;97802.09;5384026;26;20648;-96
2023/12/02 11:26:32;;;;;;;1.73;1.60;;;;;;;7.84;59.62;97775.53;5365115;26;20038;-96
2023/12/02 11:29:19;;;;;;;0.20;0.20;;;;;;;7.87;59.62;97801.28;5379777;26;20021;-96
2023/12/02 11:32:00;;;;;;;1.23;0.85;;;;;;;7.63;59.60;97787.84;5353551;26;20056;-94
2023/12/02 11:34:45;;;;;;;0.35;0.35;;;;;;;7.77;59.61;97795.72;5332283;26;20091;-96
2023/12/02 11:37:34;;;;;;;2.10;1.73;;;;;;;7.85;59.61;97785.81;5368765;26;20454;-94
2023/12/02 11:40:12;;;;;;;0.00;0.00;;;;;;;8.00;59.62;97794.50;5350311;26;20055;-95
2023/12/02 11:42:54;;;;;;;3.72;2.53;;;;;;;7.95;59.62;97809.47;5357092;26;20020;-95
2023/12/02 11:45:28;;;;;;;1.37;1.35;;;;;;;8.06;59.62;97821.87;5324314;26;20044;-94
2023/12/02 11:48:20;;;;;;;5.37;1.33;;;;;;;8.08;59.63;97836.41;5379655;26;20061;-96
2023/12/02 11:51:15;;;;;;;1.20;1.05;;;;;;;8.00;59.62;97844.56;5340392;26;20055;-94
2023/12/02 11:54:20;;;;;;;3.10;0.75;;;;;;;8.13;59.63;97838.75;5343038;26;20027;-95
2023/12/02 11:56:51;;;;;;;0.10;0.10;;;;;;;8.14;59.62;97827.47;5331916;27;20075;-96
2023/12/02 11:59:24;;;;;;;0.77;0.75;;;;;;;8.20;59.63;97809.84;5315836;27;20472;-96
2023/12/02 12:02:43;;;;;;;0.90;0.90;;;;;;;8.17;59.63;97804.00;5334283;27;20017;-96
2023/12/02 12:05:49;;;;;;;2.15;2.00;;;;;;;8.29;59.63;97809.38;5337905;27;20022;-96
2023/12/02 12:09:02;;;;;;;0.70;0.62;;;;;;;8.32;59.64;97809.19;5339051;26;20063;-96
2023/12/02 12:12:52;;;;;;;0.30;0.30;;;;;;;8.09;59.63;97806.16;5242967;27;20038;-96
2023/12/02 12:15:57;;;;;;;0.62;0.62;;;;;;;8.17;59.63;97815.19;5232531;27;20026;-96
2023/12/02 12:22:05;;;;;;;0.10;0.10;;;;;;;8.24;59.63;97826.91;5288035;27;20069;-96
2023/12/02 12:25:17;;;;;;;0.60;0.55;;;;;;;8.12;59.62;97832.75;5295337;27;20037;-96
2023/12/02 12:28:39;;;;;;;0.85;0.82;;;;;;;7.98;59.61;97822.25;5276669;27;20041;-96
2023/12/02 12:32:02;;;;;;;0.55;0.55;;;;;;;7.72;59.60;97791.69;5259863;27;20038;-96
2023/12/02 12:34:54;;;;;;;0.10;0.10;;;;;;;7.84;59.62;97788.47;5295545;27;20030;-96
2023/12/02 12:37:52;;;;;;;1.83;1.10;;;;;;;7.73;59.60;97806.31;5275028;27;20053;-96
2023/12/02 12:41:03;;;;;;;0.47;0.47;;;;;;;7.70;59.61;97791.78;5303271;26;20068;-96
2023/12/02 12:44:19;;;;;;;0.10;0.10;;;;;;;7.60;59.60;97786.25;5364953;26;20035;-96
2023/12/02 12:47:33;;;;;;;0.08;0.08;;;;;;;7.38;59.59;97793.41;5368491;26;20032;-96
2023/12/02 12:50:23;;;;;;;0.90;0.90;;;;;;;7.53;59.59;97790.03;5365068;26;20050;-96
2023/12/02 12:56:10;;;;;;;0.00;0.00;;;;;;;7.53;59.59;97784.03;5313557;27;20049;-96
2023/12/02 12:59:27;;;;;;;0.35;0.35;;;;;;;7.48;59.60;97773.91;5279585;27;20064;-96
2023/12/02 13:02:44;;;;;;;3.45;2.08;;;;;;;7.59;59.60;97775.97;5302090;27;21370;-95
2023/12/02 13:05:12;;;;;;;1.00;0.98;;;;;;;7.21;59.58;97812.38;5291239;27;20068;-96
2023/12/02 13:07:52;;;;;;;0.68;0.68;;;;;;;7.15;59.57;97819.59;5313342;27;20021;-95
2023/12/02 13:10:24;;;;;;;0.03;0.03;;;;;;;6.81;59.56;97833.31;5313837;27;20046;-95
2023/12/02 13:12:56;;;;;;;0.10;0.10;;;;;;;6.60;59.55;97846.31;5274455;27;20021;-96
2023/12/02 13:15:26;;;;;;;0.10;0.10;;;;;;;6.47;59.53;97846.06;5309524;27;20052;-96
2023/12/02 13:17:53;;;;;;;0.03;0.03;;;;;;;6.45;59.53;97852.22;5295713;27;20033;-96
2023/12/02 13:26:34;;;;;;;1.12;0.70;;;;;;;5.98;59.50;97818.19;5288908;27;20096;-95
2023/12/02 13:32:46;;;;;;;0.45;0.45;;;;;;;6.34;59.52;97829.44;5290994;27;20121;-95
2023/12/02 13:40:39;;;;;;;1.33;1.30;;;;;;;6.22;59.52;97861.00;5258273;26;20045;-94
2023/12/02 13:43:05;;;;;;;8.57;0.62;;;;;;;6.12;59.51;97867.47;5312046;26;20070;-94
2023/12/02 13:45:31;;;;;;;0.50;0.50;;;;;;;6.03;59.51;97896.28;5331244;26;20063;-93
2023/12/02 13:47:56;;;;;;;0.75;0.75;;;;;;;5.98;59.51;97917.16;5329118;26;27455;-90
2023/12/02 13:50:21;;;;;;;0.25;0.25;;;;;;;5.91;59.51;97972.53;5348178;26;20313;-90
2023/12/02 13:52:52;;;;;;;1.98;0.65;;;;;;;5.86;59.50;98011.41;5310410;26;24258;-94
2023/12/02 13:55:57;;;;;;;3.85;1.85;;;;;;;5.56;59.48;98010.06;5311960;26;20122;-94
2023/12/02 13:58:23;;;;;;;0.13;0.13;;;;;;;5.41;59.48;98005.50;5348494;26;20078;-94
2023/12/02 14:01:09;;;;;;;1.50;1.40;;;;;;;5.18;59.47;97973.69;5311831;26;20091;-90
2023/12/02 14:03:53;;;;;;;0.37;0.37;;;;;;;5.18;59.47;97958.22;5335188;26;20080;-93
2023/12/02 14:06:20;;;;;;;2.10;2.00;;;;;;;5.33;59.48;97968.84;5349809;26;20968;-94
2023/12/02 14:08:59;;;;;;;0.25;0.25;;;;;;;5.37;59.47;97962.66;5311648;26;20052;-94
2023/12/02 14:11:44;;;;;;;0.13;0.13;;;;;;;5.44;59.48;97958.94;5313163;26;20044;-93
2023/12/02 14:14:21;;;;;;;0.13;0.13;;;;;;;5.36;59.47;97954.09;5313823;26;20079;-93
2023/12/02 14:16:58;;;;;;;0.75;0.75;;;;;;;5.13;59.46;97965.31;5348208;26;20032;-92
2023/12/02 14:19:29;;;;;;;0.90;0.90;;;;;;;4.98;59.45;97983.13;5314698;26;20100;-92
2023/12/02 14:22:22;;;;;;;0.40;0.40;;;;;;;5.01;59.46;97996.75;5348305;26;20045;-93
2023/12/02 14:24:50;;;;;;;0.85;0.85;;;;;;;4.85;59.44;98022.25;5348715;26;20080;-93
2023/12/02 14:27:23;;;;;;;1.35;1.25;;;;;;;5.16;59.47;98016.78;5348703;26;20076;-94
2023/12/02 14:30:00;;;;;;;2.83;2.05;;;;;;;5.22;59.46;98003.66;5329895;26;20044;-93
2023/12/02 14:32:44;;;;;;;2.75;0.65;;;;;;;5.36;59.47;97990.22;5348438;26;20048;-92
2023/12/02 14:35:23;;;;;;;2.37;2.00;;;;;;;5.26;59.47;98012.13;5348507;26;20405;-94
2023/12/02 14:37:55;;;;;;;1.40;1.10;;;;;;;5.35;59.47;98013.50;5310470;26;20056;-94
2023/12/02 14:40:46;;;;;;;0.95;0.95;;;;;;;5.32;59.47;98017.03;5347624;26;20517;-92
2023/12/02 14:43:31;;;;;;;0.45;0.45;;;;;;;5.33;59.48;98016.12;5332140;26;20062;-92
2023/12/02 14:45:57;;;;;;;0.43;0.43;;;;;;;5.07;59.45;97980.19;5347472;26;21003;-92
2023/12/02 14:48:23;;;;;;;0.70;0.70;;;;;;;5.15;59.46;98007.34;5310739;26;20075;-94
2023/12/02 14:50:56;;;;;;;5.28;3.00;;;;;;;5.27;59.47;98016.38;5310647;26;20095;-92
2023/12/02 14:53:22;;;;;;;1.95;1.85;;;;;;;5.26;59.47;97986.31;5311373;26;20103;-92
2023/12/02 14:55:48;;;;;;;0.10;0.10;;;;;;;5.37;59.47;97993.62;5310776;26;20115;-92
2023/12/02 14:58:23;;;;;;;0.30;0.30;;;;;;;5.38;59.47;97991.00;5311163;26;20344;-94
2023/12/02 15:00:56;;;;;;;0.30;0.30;;;;;;;5.43;59.48;97990.81;5330051;26;20059;-92
2023/12/02 15:03:29;;;;;;;0.30;0.30;;;;;;;5.42;59.48;97995.13;5311633;26;20043;-93
2023/12/02 15:05:57;;;;;;;0.40;0.40;;;;;;;5.15;59.45;97994.47;5312870;26;20739;-91
2023/12/02 15:08:23;;;;;;;1.40;1.35;;;;;;;4.79;59.43;98009.59;5313187;26;20068;-92
2023/12/02 15:10:51;;;;;;;0.05;0.05;;;;;;;4.76;59.44;97965.87;5311985;26;20081;-93
2023/12/02 15:13:21;;;;;;;0.75;0.70;;;;;;;4.90;59.44;97973.06;5304704;26;113587;-91
2023/12/02 15:15:54;;;;;;;1.05;1.05;;;;;;;5.02;59.46;98013.06;5297416;26;20700;-92
2023/12/02 15:18:27;;;;;;;0.10;0.10;;;;;;;4.78;59.44;97987.28;5311434;26;20459;-91
2023/12/02 15:21:12;;;;;;;0.03;0.03;;;;;;;4.86;59.44;98005.88;5330023;26;20059;-90
2023/12/02 15:23:41;;;;;;;0.10;0.10;;;;;;;4.53;59.43;98002.78;5312619;26;20099;-92
2023/12/02 15:26:14;;;;;;;0.52;0.37;;;;;;;4.35;59.42;98054.94;5312158;26;20716;-91
2023/12/02 15:28:39;;;;;;;0.57;0.57;;;;;;;4.52;59.43;98016.56;5312322;26;20084;-92
2023/12/02 15:31:13;;;;;;;1.98;1.08;;;;;;;4.60;59.43;98011.13;5347381;26;20060;-92
2023/12/02 15:33:39;;;;;;;1.27;1.17;;;;;;;4.56;59.42;98061.09;5348425;26;20108;-93
2023/12/02 15:36:05;;;;;;;0.75;0.30;;;;;;;4.58;59.43;98033.53;5329847;26;20056;-92
2023/12/02 15:38:31;;;;;;;0.00;0.00;;;;;;;4.51;59.43;98038.06;5311477;26;20063;-93
2023/12/02 15:40:56;;;;;;;0.10;0.10;;;;;;;4.56;59.43;98005.25;5311336;26;20112;-92
2023/12/02 15:43:22;;;;;;;1.48;0.60;;;;;;;4.39;59.42;97989.53;5311456;26;20108;-92
2023/12/02 15:45:47;;;;;;;0.98;0.52;;;;;;;4.34;59.41;97988.87;5311371;26;20060;-90
2023/12/02 15:48:13;;;;;;;0.57;0.57;;;;;;;4.38;59.42;98013.63;5310627;26;20318;-92
2023/12/02 15:50:38;;;;;;;1.17;1.08;;;;;;;4.07;59.40;98073.06;5311123;26;20410;-93
2023/12/02 15:53:04;;;;;;;1.00;1.00;;;;;;;4.05;59.40;98086.88;5329464;26;23291;-91
2023/12/02 15:55:29;;;;;;;0.55;0.55;;;;;;;3.99;59.40;98090.47;5310958;26;20064;-91
2023/12/02 15:57:56;;;;;;;1.50;1.42;;;;;;;3.72;59.38;98081.03;5311213;26;20115;-93
2023/12/02 16:00:23;;;;;;;3.37;1.98;;;;;;;3.68;59.38;98091.44;5311715;26;20126;-91
2023/12/02 16:02:49;;;;;;;2.72;1.02;;;;;;;3.55;59.37;98118.44;5311881;26;20098;-93
2023/12/02 16:05:14;;;;;;;0.88;0.88;;;;;;;3.50;59.37;98142.59;5311053;26;20107;-91
2023/12/02 16:07:40;;;;;;;1.45;0.98;;;;;;;3.53;59.38;98142.50;5310049;26;20260;-90
2023/12/02 16:10:10;;;;;;;1.23;1.17;;;;;;;3.49;59.37;98148.63;5311327;26;20086;-90
2023/12/02 16:12:36;;;;;;;0.80;0.80;;;;;;;3.52;59.37;98162.25;5311487;26;20060;-93
2023/12/02 16:15:02;;;;;;;1.00;1.00;;;;;;;3.35;59.36;98136.19;5326960;26;20314;-89
2023/12/02 16:17:27;;;;;;;0.88;0.88;;;;;;;3.38;59.36;98125.81;5309293;26;20098;-91
2023/12/02 16:19:52;;;;;;;3.72;0.98;;;;;;;3.37;59.35;98142.13;5309222;26;20113;-91
2023/12/02 16:22:18;;;;;;;1.83;1.70;;;;;;;3.22;59.35;98130.53;5308946;26;20099;-90
2023/12/02 16:24:44;;;;;;;2.22;1.52;;;;;;;3.06;59.34;98136.97;5327744;26;20064;-91
2023/12/02 16:27:09;;;;;;;2.05;1.92;;;;;;;2.96;59.34;98148.41;5327207;26;20076;-92
2023/12/02 16:29:35;;;;;;;0.10;0.10;;;;;;;2.75;59.33;98167.81;5308257;26;20107;-92
2023/12/02 16:32:01;;;;;;;0.62;0.62;;;;;;;2.81;59.33;98179.66;5310406;26;20051;-91
2023/12/02 16:34:26;;;;;;;3.33;1.42;;;;;;;2.82;59.33;98168.47;5308769;26;26954;-91
2023/12/02 16:36:51;;;;;;;0.98;0.35;;;;;;;2.75;59.33;98152.41;5309867;26;20130;-93
2023/12/02 16:39:17;;;;;;;0.47;0.47;;;;;;;2.88;59.34;98158.06;5309726;26;20083;-92
2023/12/02 16:41:43;;;;;;;0.00;0.00;;;;;;;2.87;59.33;98144.38;5310493;26;20070;-91
2023/12/02 16:44:08;;;;;;;2.00;0.95;;;;;;;2.80;59.32;98152.25;5309888;26;20060;-91
2023/12/02 16:46:35;;;;;;;0.15;0.15;;;;;;;2.80;59.32;98159.97;5310079;26;20412;-89
2023/12/02 16:49:02;;;;;;;0.65;0.65;;;;;;;2.99;59.34;98167.16;5309965;26;20056;-94
2023/12/02 16:51:27;;;;;;;0.00;0.00;;;;;;;2.78;59.32;98178.00;5310793;26;20055;-94
2023/12/02 16:53:54;;;;;;;1.75;0.95;;;;;;;2.65;59.33;98176.66;5310132;26;20133;-92
2023/12/02 16:56:28;;;;;;;1.65;0.93;;;;;;;2.58;59.32;98180.22;5310604;26;20060;-91
2023/12/02 16:58:53;;;;;;;0.75;0.75;;;;;;;2.66;59.32;98204.03;5310429;26;20072;-94
2023/12/02 17:01:45;;;;;;;0.00;0.00;;;;;;;2.65;59.33;98212.59;5309770;26;20103;-93
2023/12/02 17:04:10;;;;;;;0.00;0.00;;;;;;;2.50;59.32;98218.94;5341988;26;20078;-92
2023/12/02 17:06:36;;;;;;;0.00;0.00;;;;;;;2.64;59.32;98218.63;5327286;26;20052;-92
2023/12/02 17:09:02;;;;;;;0.20;0.20;;;;;;;2.56;59.31;98228.22;5310258;26;20060;-94
2023/12/02 17:11:29;;;;;;;1.52;1.35;;;;;;;2.58;59.32;98218.75;5310408;26;20078;-91
2023/12/02 17:13:59;;;;;;;1.27;1.17;;;;;;;2.50;59.32;98208.69;5311017;26;20083;-90
2023/12/02 17:16:30;;;;;;;;;;;;;;;2.42;59.30;98208.88;5310759;26;20083;-92
2023/12/02 17:18:59;;;;;;;0.85;0.85;;;;;;;2.42;59.30;98197.75;5347551;26;19971;-93
2023/12/02 17:21:47;;;;;;;0.35;0.35;;;;;;;2.22;59.30;98205.09;5348103;26;20056;-96
2023/12/02 17:24:32;;;;;;;0.52;0.52;;;;;;;2.15;59.29;98192.41;5311996;26;20052;-93
2023/12/02 17:26:58;;;;;;;0.32;0.32;;;;;;;2.03;59.28;98189.25;5349636;26;20068;-95
2023/12/02 17:29:25;;;;;;;0.22;0.22;;;;;;;2.01;59.29;98206.41;5312917;26;20056;-95
2023/12/02 17:31:51;;;;;;;0.00;0.00;;;;;;;2.04;59.29;98214.03;5314771;26;20020;-95
2023/12/02 17:34:17;;;;;;;0.65;0.52;;;;;;;1.71;59.27;98213.06;5310550;26;20064;-91
2023/12/02 17:36:42;;;;;;;0.00;0.00;;;;;;;1.52;59.26;98215.16;5310573;26;20071;-92
2023/12/02 17:39:10;;;;;;;1.85;1.75;;;;;;;1.49;59.26;98228.03;5310157;26;20072;-92
2023/12/02 17:41:35;;;;;;;4.47;1.85;;;;;;;1.65;59.27;98234.53;5309719;26;20052;-90
2023/12/02 17:44:01;;;;;;;1.77;0.90;;;;;;;1.54;59.25;98245.03;5309984;26;20083;-93
2023/12/02 17:46:26;;;;;;;5.95;1.33;;;;;;;1.42;59.25;98236.72;5310335;26;20059;-93
2023/12/02 17:48:52;;;;;;;1.73;1.37;;;;;;;1.28;59.25;98248.97;5311090;26;20409;-92
2023/12/02 17:51:19;;;;;;;1.08;1.08;;;;;;;1.28;59.24;98266.91;5310938;26;20080;-92
2023/12/02 17:53:44;;;;;;;3.00;1.23;;;;;;;1.44;59.25;98276.84;5311344;26;20085;-92
2023/12/02 17:56:11;;;;;;;1.65;1.45;;;;;;;1.31;59.24;98282.22;5311291;26;20060;-92
2023/12/02 17:58:36;;;;;;;0.43;0.43;;;;;;;1.26;59.24;98297.69;5312241;26;20052;-95
2023/12/02 18:01:02;;;;;;;0.70;0.70;;;;;;;1.40;59.25;98302.56;5311287;26;20047;-91
2023/12/02 18:03:28;;;;;;;0.00;0.00;;;;;;;1.21;59.24;98292.66;5329736;26;20076;-93
2023/12/02 18:05:53;;;;;;;1.10;1.10;;;;;;;1.39;59.24;98323.94;5329017;26;20392;-93
2023/12/02 18:08:19;;;;;;;0.03;0.03;;;;;;;1.51;59.25;98334.00;5314328;26;20143;-91
2023/12/02 18:10:44;;;;;;;1.27;0.68;;;;;;;1.42;59.26;98337.56;5311196;26;20096;-93
2023/12/02 18:13:09;;;;;;;0.62;0.62;;;;;;;1.48;59.26;98334.91;5310908;26;20072;-93
2023/12/02 18:15:35;;;;;;;0.47;0.47;;;;;;;1.47;59.25;98343.47;5348294;26;20095;-93
2023/12/02 18:18:00;;;;;;;0.40;0.40;;;;;;;1.45;59.25;98344.38;5316118;26;20095;-92
2023/12/02 18:20:26;;;;;;;0.75;0.75;;;;;;;1.54;59.26;98355.28;5312178;26;20051;-93
2023/12/02 18:22:51;;;;;;;0.00;0.00;;;;;;;1.42;59.25;98363.22;5310434;26;20115;-90
2023/12/02 18:25:17;;;;;;;6.57;1.95;;;;;;;1.40;59.25;98358.97;5310643;26;20419;-93
2023/12/02 18:27:42;;;;;;;0.77;0.77;;;;;;;1.38;59.24;98364.13;5313395;26;20048;-92
2023/12/02 18:30:08;;;;;;;0.00;0.00;;;;;;;1.18;59.23;98353.34;5310898;26;20096;-93
2023/12/02 18:32:34;;;;;;;3.50;3.20;;;;;;;1.41;59.25;98348.66;5311767;26;20060;-92
2023/12/02 18:34:59;;;;;;;0.10;0.10;;;;;;;1.43;59.25;98375.16;5311929;26;20444;-92
2023/12/02 18:37:25;;;;;;;1.00;0.85;;;;;;;1.25;59.23;98374.62;5330682;26;20056;-91
2023/12/02 18:39:50;;;;;;;0.13;0.13;;;;;;;1.10;59.23;98371.41;5310977;26;21568;-94
2023/12/02 18:42:15;;;;;;;0.17;0.17;;;;;;;1.14;59.23;98380.75;5311347;26;20399;-91
2023/12/02 18:44:43;;;;;;;0.10;0.10;;;;;;;1.19;59.24;98376.41;5349619;26;20071;-92
2023/12/02 18:47:08;;;;;;;2.22;0.70;;;;;;;1.25;59.25;98375.47;5331026;26;20049;-94
2023/12/02 18:49:34;;;;;;;0.03;0.03;;;;;;;1.46;59.25;98382.78;5314629;26;25208;-93
2023/12/02 18:51:59;;;;;;;3.80;0.57;;;;;;;1.25;59.25;98385.72;5312125;26;20364;-93
2023/12/02 18:54:25;;;;;;;0.70;0.65;;;;;;;1.34;59.25;98372.72;5311151;26;20086;-93
2023/12/02 18:56:50;;;;;;;0.60;0.60;;;;;;;1.20;59.24;98377.25;5311842;26;20068;-95
2023/12/02 18:59:16;;;;;;;1.98;0.73;;;;;;;0.95;59.22;98397.31;5330801;26;20060;-95
2023/12/02 19:01:42;;;;;;;0.75;0.70;;;;;;;1.13;59.23;98402.13;5312075;26;20086;-93
2023/12/02 19:04:08;;;;;;;0.08;0.08;;;;;;;1.06;59.23;98366.38;5330874;26;20074;-93
2023/12/02 19:06:33;;;;;;;0.85;0.85;;;;;;;1.03;59.22;98403.16;5311588;26;20048;-93
2023/12/02 19:08:59;;;;;;;1.75;0.88;;;;;;;0.94;59.22;98428.88;5356187;26;20060;-92
2023/12/02 19:11:24;;;;;;;0.08;0.08;;;;;;;0.95;59.22;98447.66;5329372;26;20032;-92